sensor_id;sensor_type;location;lat;lon;timestamp;P1;durP1;ratioP1;P2;durP2;ratioP2
33453;SDS011;39400;49.744;7.012;2023-05-15T00:02:21;12.23;;;6.88;;
33453;SDS011;39400;49.744;7.012;2023-05-15T00:04:46;9.60;;;6.90;;
33453;SDS011;39400;49.744;7.012;2023-05-15T00:07:12;9.27;;;6.32;;
33453;SDS011;39400;49.744;7.012;2023-05-15T00:09:37;8.85;;;6.00;;
33453;SDS011;39400;49.744;7.012;2023-05-15T00:12:02;8.27;;;6.28;;
33453;SDS011;39400;49.744;7.012;2023-05-15T00:14:28;13.32;;;6.43;;
33453;SDS011;39400;49.744;7.012;2023-05-15T00:16:53;9.20;;;5.90;;
33453;SDS011;39400;49.744;7.012;2023-05-15T00:19:20;7.38;;;6.47;;
33453;SDS011;39400;49.744;7.012;2023-05-15T00:21:45;8.50;;;7.22;;
33453;SDS011;39400;49.744;7.012;2023-05-15T00:24:10;9.18;;;6.53;;
33453;SDS011;39400;49.744;7.012;2023-05-15T00:26:35;11.20;;;6.93;;
33453;SDS011;39400;49.744;7.012;2023-05-15T00:29:02;9.55;;;6.75;;
33453;SDS011;39400;49.744;7.012;2023-05-15T00:31:27;8.57;;;6.40;;
33453;SDS011;39400;49.744;7.012;2023-05-15T00:33:52;8.38;;;6.45;;
33453;SDS011;39400;49.744;7.012;2023-05-15T00:36:18;10.50;;;6.35;;
33453;SDS011;39400;49.744;7.012;2023-05-15T00:38:43;9.00;;;6.40;;
33453;SDS011;39400;49.744;7.012;2023-05-15T00:41:09;8.35;;;6.32;;
33453;SDS011;39400;49.744;7.012;2023-05-15T00:43:35;7.53;;;5.70;;
33453;SDS011;39400;49.744;7.012;2023-05-15T00:46:03;10.35;;;6.43;;
33453;SDS011;39400;49.744;7.012;2023-05-15T00:48:31;8.43;;;6.30;;
33453;SDS011;39400;49.744;7.012;2023-05-15T00:50:57;11.43;;;7.50;;
33453;SDS011;39400;49.744;7.012;2023-05-15T00:53:23;8.05;;;6.50;;
33453;SDS011;39400;49.744;7.012;2023-05-15T00:55:51;8.95;;;6.68;;
33453;SDS011;39400;49.744;7.012;2023-05-15T00:58:18;10.90;;;6.20;;
33453;SDS011;39400;49.744;7.012;2023-05-15T01:00:45;7.63;;;5.57;;
33453;SDS011;39400;49.744;7.012;2023-05-15T01:03:15;8.70;;;6.50;;
33453;SDS011;39400;49.744;7.012;2023-05-15T01:05:41;8.23;;;7.30;;
33453;SDS011;39400;49.744;7.012;2023-05-15T01:11:01;11.82;;;7.95;;
33453;SDS011;39400;49.744;7.012;2023-05-15T01:13:29;7.72;;;6.93;;
33453;SDS011;39400;49.744;7.012;2023-05-15T01:15:55;7.93;;;6.88;;
33453;SDS011;39400;49.744;7.012;2023-05-15T01:18:20;7.22;;;5.80;;
33453;SDS011;39400;49.744;7.012;2023-05-15T01:26:32;8.38;;;7.13;;
33453;SDS011;39400;49.744;7.012;2023-05-15T01:29:27;10.95;;;8.30;;
33453;SDS011;39400;49.744;7.012;2023-05-15T01:31:59;12.57;;;7.72;;
33453;SDS011;39400;49.744;7.012;2023-05-15T01:34:33;10.85;;;7.32;;
33453;SDS011;39400;49.744;7.012;2023-05-15T01:37:06;9.38;;;7.43;;
33453;SDS011;39400;49.744;7.012;2023-05-15T01:39:33;10.70;;;7.18;;
33453;SDS011;39400;49.744;7.012;2023-05-15T01:42:05;9.35;;;7.30;;
33453;SDS011;39400;49.744;7.012;2023-05-15T01:44:33;12.15;;;7.10;;
33453;SDS011;39400;49.744;7.012;2023-05-15T01:47:03;9.73;;;7.43;;
33453;SDS011;39400;49.744;7.012;2023-05-15T01:49:32;10.30;;;7.55;;
33453;SDS011;39400;49.744;7.012;2023-05-15T01:52:11;10.73;;;8.27;;
33453;SDS011;39400;49.744;7.012;2023-05-15T01:54:41;7.85;;;6.80;;
33453;SDS011;39400;49.744;7.012;2023-05-15T01:57:07;10.80;;;8.25;;
33453;SDS011;39400;49.744;7.012;2023-05-15T01:59:33;9.73;;;8.00;;
33453;SDS011;39400;49.744;7.012;2023-05-15T02:02:00;10.52;;;9.15;;
33453;SDS011;39400;49.744;7.012;2023-05-15T02:04:29;13.07;;;10.13;;
33453;SDS011;39400;49.744;7.012;2023-05-15T02:06:54;14.30;;;10.35;;
33453;SDS011;39400;49.744;7.012;2023-05-15T02:09:20;14.23;;;11.40;;
33453;SDS011;39400;49.744;7.012;2023-05-15T02:11:48;15.82;;;13.30;;
33453;SDS011;39400;49.744;7.012;2023-05-15T02:14:15;17.00;;;12.93;;
33453;SDS011;39400;49.744;7.012;2023-05-15T02:16:40;15.15;;;10.63;;
33453;SDS011;39400;49.744;7.012;2023-05-15T02:19:06;14.13;;;11.15;;
33453;SDS011;39400;49.744;7.012;2023-05-15T02:21:31;15.00;;;10.38;;
33453;SDS011;39400;49.744;7.012;2023-05-15T02:23:57;11.75;;;10.30;;
33453;SDS011;39400;49.744;7.012;2023-05-15T02:26:30;12.63;;;9.10;;
33453;SDS011;39400;49.744;7.012;2023-05-15T02:29:23;15.45;;;7.95;;
33453;SDS011;39400;49.744;7.012;2023-05-15T02:35:18;9.05;;;7.85;;
33453;SDS011;39400;49.744;7.012;2023-05-15T02:37:52;10.43;;;7.53;;
33453;SDS011;39400;49.744;7.012;2023-05-15T02:40:21;11.50;;;7.72;;
33453;SDS011;39400;49.744;7.012;2023-05-15T02:42:47;10.23;;;8.68;;
33453;SDS011;39400;49.744;7.012;2023-05-15T02:45:13;10.80;;;9.18;;
33453;SDS011;39400;49.744;7.012;2023-05-15T02:47:41;13.55;;;10.63;;
33453;SDS011;39400;49.744;7.012;2023-05-15T02:50:06;15.85;;;11.13;;
33453;SDS011;39400;49.744;7.012;2023-05-15T02:52:33;13.18;;;10.65;;
33453;SDS011;39400;49.744;7.012;2023-05-15T02:54:59;11.98;;;10.20;;
33453;SDS011;39400;49.744;7.012;2023-05-15T02:57:24;13.30;;;11.82;;
33453;SDS011;39400;49.744;7.012;2023-05-15T02:59:50;16.20;;;11.88;;
33453;SDS011;39400;49.744;7.012;2023-05-15T03:02:15;15.02;;;12.98;;
33453;SDS011;39400;49.744;7.012;2023-05-15T03:04:40;24.83;;;14.57;;
33453;SDS011;39400;49.744;7.012;2023-05-15T03:07:05;18.13;;;13.70;;
33453;SDS011;39400;49.744;7.012;2023-05-15T03:09:31;21.40;;;13.90;;
33453;SDS011;39400;49.744;7.012;2023-05-15T03:11:56;18.73;;;14.23;;
33453;SDS011;39400;49.744;7.012;2023-05-15T03:14:22;15.63;;;13.65;;
33453;SDS011;39400;49.744;7.012;2023-05-15T03:16:47;18.45;;;15.10;;
33453;SDS011;39400;49.744;7.012;2023-05-15T03:19:12;15.25;;;13.27;;
33453;SDS011;39400;49.744;7.012;2023-05-15T03:21:37;22.25;;;14.25;;
33453;SDS011;39400;49.744;7.012;2023-05-15T03:24:03;14.10;;;12.05;;
33453;SDS011;39400;49.744;7.012;2023-05-15T03:26:28;12.15;;;10.80;;
33453;SDS011;39400;49.744;7.012;2023-05-15T03:28:54;16.27;;;12.68;;
33453;SDS011;39400;49.744;7.012;2023-05-15T03:31:19;15.63;;;12.82;;
33453;SDS011;39400;49.744;7.012;2023-05-15T03:33:45;14.82;;;13.15;;
33453;SDS011;39400;49.744;7.012;2023-05-15T03:36:10;18.50;;;13.90;;
33453;SDS011;39400;49.744;7.012;2023-05-15T03:38:36;18.55;;;13.85;;
33453;SDS011;39400;49.744;7.012;2023-05-15T03:41:01;14.98;;;12.48;;
33453;SDS011;39400;49.744;7.012;2023-05-15T03:43:29;17.05;;;13.73;;
33453;SDS011;39400;49.744;7.012;2023-05-15T03:45:54;17.83;;;13.63;;
33453;SDS011;39400;49.744;7.012;2023-05-15T03:48:19;15.70;;;13.55;;
33453;SDS011;39400;49.744;7.012;2023-05-15T03:50:45;13.82;;;11.75;;
33453;SDS011;39400;49.744;7.012;2023-05-15T03:53:10;15.63;;;12.43;;
33453;SDS011;39400;49.744;7.012;2023-05-15T03:55:35;15.40;;;13.73;;
33453;SDS011;39400;49.744;7.012;2023-05-15T03:58:01;17.95;;;12.75;;
33453;SDS011;39400;49.744;7.012;2023-05-15T04:00:26;14.55;;;12.68;;
33453;SDS011;39400;49.744;7.012;2023-05-15T04:02:52;15.52;;;13.10;;
33453;SDS011;39400;49.744;7.012;2023-05-15T04:05:17;17.65;;;13.48;;
33453;SDS011;39400;49.744;7.012;2023-05-15T04:07:42;16.23;;;12.18;;
33453;SDS011;39400;49.744;7.012;2023-05-15T04:10:08;15.20;;;12.68;;
33453;SDS011;39400;49.744;7.012;2023-05-15T04:12:33;15.38;;;11.77;;
33453;SDS011;39400;49.744;7.012;2023-05-15T04:15:18;18.70;;;11.85;;
33453;SDS011;39400;49.744;7.012;2023-05-15T04:17:46;14.77;;;11.75;;
33453;SDS011;39400;49.744;7.012;2023-05-15T04:20:13;15.35;;;11.93;;
33453;SDS011;39400;49.744;7.012;2023-05-15T04:22:40;15.00;;;12.35;;
33453;SDS011;39400;49.744;7.012;2023-05-15T04:25:06;16.98;;;12.18;;
33453;SDS011;39400;49.744;7.012;2023-05-15T04:27:32;17.00;;;13.63;;
33453;SDS011;39400;49.744;7.012;2023-05-15T04:29:57;16.88;;;13.07;;
33453;SDS011;39400;49.744;7.012;2023-05-15T04:32:23;13.38;;;11.40;;
33453;SDS011;39400;49.744;7.012;2023-05-15T04:34:48;14.40;;;12.65;;
33453;SDS011;39400;49.744;7.012;2023-05-15T04:37:13;16.20;;;12.20;;
33453;SDS011;39400;49.744;7.012;2023-05-15T04:39:39;21.92;;;12.68;;
33453;SDS011;39400;49.744;7.012;2023-05-15T04:42:04;17.15;;;12.15;;
33453;SDS011;39400;49.744;7.012;2023-05-15T04:44:30;16.58;;;11.63;;
33453;SDS011;39400;49.744;7.012;2023-05-15T04:46:55;18.67;;;12.32;;
33453;SDS011;39400;49.744;7.012;2023-05-15T04:49:20;19.42;;;13.60;;
33453;SDS011;39400;49.744;7.012;2023-05-15T04:51:46;13.25;;;11.82;;
33453;SDS011;39400;49.744;7.012;2023-05-15T04:54:11;16.05;;;12.13;;
33453;SDS011;39400;49.744;7.012;2023-05-15T04:56:36;13.57;;;10.77;;
33453;SDS011;39400;49.744;7.012;2023-05-15T04:59:02;16.13;;;13.23;;
33453;SDS011;39400;49.744;7.012;2023-05-15T05:01:27;20.40;;;14.45;;
33453;SDS011;39400;49.744;7.012;2023-05-15T05:03:53;16.05;;;13.88;;
33453;SDS011;39400;49.744;7.012;2023-05-15T05:06:18;16.70;;;14.48;;
33453;SDS011;39400;49.744;7.012;2023-05-15T05:08:43;18.25;;;14.98;;
33453;SDS011;39400;49.744;7.012;2023-05-15T05:14:30;17.08;;;12.20;;
33453;SDS011;39400;49.744;7.012;2023-05-15T05:16:56;16.15;;;12.07;;
33453;SDS011;39400;49.744;7.012;2023-05-15T05:19:21;15.90;;;13.30;;
33453;SDS011;39400;49.744;7.012;2023-05-15T05:21:46;16.85;;;13.10;;
33453;SDS011;39400;49.744;7.012;2023-05-15T05:24:12;15.70;;;13.23;;
33453;SDS011;39400;49.744;7.012;2023-05-15T05:26:37;17.98;;;12.45;;
33453;SDS011;39400;49.744;7.012;2023-05-15T05:29:03;15.77;;;13.30;;
33453;SDS011;39400;49.744;7.012;2023-05-15T05:31:28;16.88;;;12.27;;
33453;SDS011;39400;49.744;7.012;2023-05-15T05:33:53;14.43;;;12.55;;
33453;SDS011;39400;49.744;7.012;2023-05-15T05:36:19;15.25;;;12.65;;
33453;SDS011;39400;49.744;7.012;2023-05-15T05:38:44;14.35;;;11.60;;
33453;SDS011;39400;49.744;7.012;2023-05-15T05:41:10;13.00;;;11.57;;
33453;SDS011;39400;49.744;7.012;2023-05-15T05:43:35;12.93;;;10.95;;
33453;SDS011;39400;49.744;7.012;2023-05-15T05:46:00;14.50;;;10.60;;
33453;SDS011;39400;49.744;7.012;2023-05-15T05:48:26;14.23;;;11.70;;
33453;SDS011;39400;49.744;7.012;2023-05-15T05:50:52;13.95;;;11.38;;
33453;SDS011;39400;49.744;7.012;2023-05-15T05:53:17;13.90;;;11.70;;
33453;SDS011;39400;49.744;7.012;2023-05-15T05:55:43;14.90;;;12.40;;
33453;SDS011;39400;49.744;7.012;2023-05-15T05:58:08;13.63;;;11.52;;
33453;SDS011;39400;49.744;7.012;2023-05-15T06:00:34;14.02;;;12.00;;
33453;SDS011;39400;49.744;7.012;2023-05-15T06:02:59;13.90;;;12.10;;
33453;SDS011;39400;49.744;7.012;2023-05-15T06:05:25;15.18;;;12.32;;
33453;SDS011;39400;49.744;7.012;2023-05-15T06:07:51;16.88;;;12.88;;
33453;SDS011;39400;49.744;7.012;2023-05-15T06:10:17;16.83;;;12.98;;
33453;SDS011;39400;49.744;7.012;2023-05-15T06:12:42;21.80;;;16.13;;
33453;SDS011;39400;49.744;7.012;2023-05-15T06:15:08;15.13;;;12.38;;
33453;SDS011;39400;49.744;7.012;2023-05-15T06:17:34;16.45;;;11.32;;
33453;SDS011;39400;49.744;7.012;2023-05-15T06:19:59;13.50;;;11.00;;
33453;SDS011;39400;49.744;7.012;2023-05-15T06:22:25;14.07;;;10.38;;
33453;SDS011;39400;49.744;7.012;2023-05-15T06:24:50;13.88;;;11.02;;
33453;SDS011;39400;49.744;7.012;2023-05-15T06:27:15;22.02;;;14.93;;
33453;SDS011;39400;49.744;7.012;2023-05-15T06:29:41;41.80;;;31.13;;
33453;SDS011;39400;49.744;7.012;2023-05-15T06:32:06;31.48;;;24.50;;
33453;SDS011;39400;49.744;7.012;2023-05-15T06:34:32;29.38;;;22.83;;
33453;SDS011;39400;49.744;7.012;2023-05-15T06:36:57;39.45;;;23.90;;
33453;SDS011;39400;49.744;7.012;2023-05-15T06:39:23;30.23;;;22.45;;
33453;SDS011;39400;49.744;7.012;2023-05-15T06:41:48;33.83;;;24.25;;
33453;SDS011;39400;49.744;7.012;2023-05-15T06:44:13;32.50;;;24.90;;
33453;SDS011;39400;49.744;7.012;2023-05-15T06:46:39;36.38;;;21.75;;
33453;SDS011;39400;49.744;7.012;2023-05-15T06:49:04;32.78;;;24.83;;
33453;SDS011;39400;49.744;7.012;2023-05-15T06:51:29;40.95;;;27.65;;
33453;SDS011;39400;49.744;7.012;2023-05-15T06:53:55;34.13;;;23.38;;
33453;SDS011;39400;49.744;7.012;2023-05-15T06:56:20;44.53;;;34.03;;
33453;SDS011;39400;49.744;7.012;2023-05-15T06:58:46;40.67;;;29.58;;
33453;SDS011;39400;49.744;7.012;2023-05-15T07:01:11;37.72;;;28.95;;
33453;SDS011;39400;49.744;7.012;2023-05-15T07:03:36;42.70;;;28.70;;
33453;SDS011;39400;49.744;7.012;2023-05-15T07:06:02;35.92;;;27.73;;
33453;SDS011;39400;49.744;7.012;2023-05-15T07:08:28;32.90;;;26.75;;
33453;SDS011;39400;49.744;7.012;2023-05-15T07:10:53;44.40;;;29.88;;
33453;SDS011;39400;49.744;7.012;2023-05-15T07:13:19;39.13;;;30.33;;
33453;SDS011;39400;49.744;7.012;2023-05-15T07:15:45;45.35;;;30.35;;
33453;SDS011;39400;49.744;7.012;2023-05-15T07:18:10;38.10;;;29.88;;
33453;SDS011;39400;49.744;7.012;2023-05-15T07:20:36;42.70;;;31.23;;
33453;SDS011;39400;49.744;7.012;2023-05-15T07:23:01;36.53;;;29.08;;
33453;SDS011;39400;49.744;7.012;2023-05-15T07:25:27;42.10;;;32.63;;
33453;SDS011;39400;49.744;7.012;2023-05-15T07:27:52;44.63;;;29.75;;
33453;SDS011;39400;49.744;7.012;2023-05-15T07:30:18;39.97;;;30.42;;
33453;SDS011;39400;49.744;7.012;2023-05-15T07:32:43;42.40;;;29.33;;
33453;SDS011;39400;49.744;7.012;2023-05-15T07:35:09;41.75;;;29.10;;
33453;SDS011;39400;49.744;7.012;2023-05-15T07:37:34;45.78;;;31.00;;
33453;SDS011;39400;49.744;7.012;2023-05-15T07:40:00;42.53;;;30.08;;
33453;SDS011;39400;49.744;7.012;2023-05-15T07:42:25;45.33;;;31.48;;
33453;SDS011;39400;49.744;7.012;2023-05-15T07:44:50;41.05;;;28.77;;
33453;SDS011;39400;49.744;7.012;2023-05-15T07:47:16;41.33;;;29.67;;
33453;SDS011;39400;49.744;7.012;2023-05-15T07:49:41;47.70;;;30.08;;
33453;SDS011;39400;49.744;7.012;2023-05-15T07:52:07;41.90;;;28.33;;
33453;SDS011;39400;49.744;7.012;2023-05-15T07:54:32;47.92;;;32.85;;
33453;SDS011;39400;49.744;7.012;2023-05-15T07:56:57;44.75;;;29.85;;
33453;SDS011;39400;49.744;7.012;2023-05-15T07:59:23;44.67;;;34.00;;
33453;SDS011;39400;49.744;7.012;2023-05-15T08:01:48;38.55;;;29.75;;
33453;SDS011;39400;49.744;7.012;2023-05-15T08:04:14;49.75;;;35.55;;
33453;SDS011;39400;49.744;7.012;2023-05-15T08:06:39;41.67;;;30.77;;
33453;SDS011;39400;49.744;7.012;2023-05-15T08:09:05;44.85;;;31.10;;
33453;SDS011;39400;49.744;7.012;2023-05-15T08:11:30;43.53;;;30.48;;
33453;SDS011;39400;49.744;7.012;2023-05-15T08:13:56;41.85;;;29.70;;
33453;SDS011;39400;49.744;7.012;2023-05-15T08:16:21;40.28;;;28.17;;
33453;SDS011;39400;49.744;7.012;2023-05-15T08:18:46;39.72;;;32.05;;
33453;SDS011;39400;49.744;7.012;2023-05-15T08:21:12;42.47;;;30.17;;
33453;SDS011;39400;49.744;7.012;2023-05-15T08:23:37;45.95;;;29.33;;
33453;SDS011;39400;49.744;7.012;2023-05-15T08:26:02;38.58;;;29.17;;
33453;SDS011;39400;49.744;7.012;2023-05-15T08:28:28;38.90;;;28.48;;
33453;SDS011;39400;49.744;7.012;2023-05-15T08:30:53;32.72;;;24.98;;
33453;SDS011;39400;49.744;7.012;2023-05-15T08:33:19;35.35;;;25.73;;
33453;SDS011;39400;49.744;7.012;2023-05-15T08:35:44;35.88;;;25.92;;
33453;SDS011;39400;49.744;7.012;2023-05-15T08:38:09;35.88;;;26.48;;
33453;SDS011;39400;49.744;7.012;2023-05-15T08:40:35;32.30;;;24.92;;
33453;SDS011;39400;49.744;7.012;2023-05-15T08:43:05;31.95;;;24.98;;
33453;SDS011;39400;49.744;7.012;2023-05-15T08:45:36;32.10;;;25.58;;
33453;SDS011;39400;49.744;7.012;2023-05-15T08:48:01;37.80;;;27.58;;
33453;SDS011;39400;49.744;7.012;2023-05-15T08:50:34;34.05;;;24.90;;
33453;SDS011;39400;49.744;7.012;2023-05-15T08:53:02;33.80;;;27.15;;
33453;SDS011;39400;49.744;7.012;2023-05-15T08:55:29;36.63;;;28.35;;
33453;SDS011;39400;49.744;7.012;2023-05-15T08:57:54;42.65;;;29.23;;
33453;SDS011;39400;49.744;7.012;2023-05-15T09:00:20;47.08;;;29.65;;
33453;SDS011;39400;49.744;7.012;2023-05-15T09:02:46;36.33;;;28.52;;
33453;SDS011;39400;49.744;7.012;2023-05-15T09:05:12;43.90;;;31.27;;
33453;SDS011;39400;49.744;7.012;2023-05-15T09:07:38;43.28;;;29.23;;
33453;SDS011;39400;49.744;7.012;2023-05-15T09:10:04;41.30;;;28.95;;
33453;SDS011;39400;49.744;7.012;2023-05-15T09:12:31;37.65;;;26.23;;
33453;SDS011;39400;49.744;7.012;2023-05-15T09:15:11;36.95;;;26.33;;
33453;SDS011;39400;49.744;7.012;2023-05-15T09:17:38;30.25;;;24.38;;
33453;SDS011;39400;49.744;7.012;2023-05-15T09:20:04;35.08;;;26.13;;
33453;SDS011;39400;49.744;7.012;2023-05-15T09:22:32;32.20;;;26.25;;
33453;SDS011;39400;49.744;7.012;2023-05-15T09:24:58;29.58;;;23.77;;
33453;SDS011;39400;49.744;7.012;2023-05-15T09:27:24;28.85;;;22.95;;
33453;SDS011;39400;49.744;7.012;2023-05-15T09:29:50;35.50;;;24.83;;
33453;SDS011;39400;49.744;7.012;2023-05-15T09:32:16;33.35;;;24.67;;
33453;SDS011;39400;49.744;7.012;2023-05-15T09:34:43;27.70;;;21.40;;
33453;SDS011;39400;49.744;7.012;2023-05-15T09:37:09;29.35;;;21.75;;
33453;SDS011;39400;49.744;7.012;2023-05-15T09:39:51;28.73;;;22.35;;
33453;SDS011;39400;49.744;7.012;2023-05-15T09:42:16;30.08;;;22.13;;
33453;SDS011;39400;49.744;7.012;2023-05-15T09:44:42;28.52;;;21.88;;
33453;SDS011;39400;49.744;7.012;2023-05-15T09:47:09;25.75;;;19.50;;
33453;SDS011;39400;49.744;7.012;2023-05-15T09:49:35;23.08;;;18.40;;
33453;SDS011;39400;49.744;7.012;2023-05-15T09:52:00;24.23;;;18.23;;
33453;SDS011;39400;49.744;7.012;2023-05-15T09:54:26;19.80;;;15.98;;
33453;SDS011;39400;49.744;7.012;2023-05-15T09:56:52;22.65;;;18.30;;
33453;SDS011;39400;49.744;7.012;2023-05-15T09:59:18;24.00;;;16.83;;
33453;SDS011;39400;49.744;7.012;2023-05-15T10:01:44;25.90;;;19.17;;
33453;SDS011;39400;49.744;7.012;2023-05-15T10:04:11;27.80;;;19.58;;
33453;SDS011;39400;49.744;7.012;2023-05-15T10:06:38;26.13;;;20.77;;
33453;SDS011;39400;49.744;7.012;2023-05-15T10:09:04;22.90;;;19.38;;
33453;SDS011;39400;49.744;7.012;2023-05-15T10:11:34;22.67;;;18.88;;
33453;SDS011;39400;49.744;7.012;2023-05-15T10:16:26;29.40;;;20.05;;
33453;SDS011;39400;49.744;7.012;2023-05-15T10:18:53;28.35;;;22.23;;
33453;SDS011;39400;49.744;7.012;2023-05-15T10:21:21;21.52;;;17.48;;
33453;SDS011;39400;49.744;7.012;2023-05-15T10:23:47;24.27;;;19.20;;
33453;SDS011;39400;49.744;7.012;2023-05-15T10:26:18;21.00;;;17.13;;
33453;SDS011;39400;49.744;7.012;2023-05-15T10:28:47;24.23;;;18.23;;
33453;SDS011;39400;49.744;7.012;2023-05-15T10:31:13;22.92;;;18.42;;
33453;SDS011;39400;49.744;7.012;2023-05-15T10:33:40;26.58;;;18.42;;
33453;SDS011;39400;49.744;7.012;2023-05-15T10:36:07;21.80;;;18.27;;
33453;SDS011;39400;49.744;7.012;2023-05-15T10:38:33;24.48;;;17.75;;
33453;SDS011;39400;49.744;7.012;2023-05-15T10:41:00;20.52;;;16.08;;
33453;SDS011;39400;49.744;7.012;2023-05-15T10:43:27;21.20;;;16.77;;
33453;SDS011;39400;49.744;7.012;2023-05-15T10:45:54;18.60;;;12.18;;
33453;SDS011;39400;49.744;7.012;2023-05-15T10:48:20;18.52;;;15.75;;
33453;SDS011;39400;49.744;7.012;2023-05-15T10:50:47;19.40;;;15.63;;
33453;SDS011;39400;49.744;7.012;2023-05-15T10:53:13;22.65;;;15.10;;
33453;SDS011;39400;49.744;7.012;2023-05-15T10:55:38;11.95;;;10.32;;
33453;SDS011;39400;49.744;7.012;2023-05-15T10:58:08;14.55;;;12.05;;
33453;SDS011;39400;49.744;7.012;2023-05-15T11:00:35;15.98;;;11.13;;
33453;SDS011;39400;49.744;7.012;2023-05-15T11:03:06;16.60;;;13.43;;
33453;SDS011;39400;49.744;7.012;2023-05-15T11:05:31;16.45;;;12.70;;
33453;SDS011;39400;49.744;7.012;2023-05-15T11:08:32;19.10;;;12.25;;
33453;SDS011;39400;49.744;7.012;2023-05-15T11:10:57;17.45;;;13.15;;
33453;SDS011;39400;49.744;7.012;2023-05-15T11:13:22;17.38;;;13.48;;
33453;SDS011;39400;49.744;7.012;2023-05-15T11:15:48;14.93;;;11.80;;
33453;SDS011;39400;49.744;7.012;2023-05-15T11:18:14;26.48;;;14.07;;
33453;SDS011;39400;49.744;7.012;2023-05-15T11:23:14;14.73;;;11.80;;
33453;SDS011;39400;49.744;7.012;2023-05-15T11:25:39;16.92;;;10.02;;
33453;SDS011;39400;49.744;7.012;2023-05-15T11:28:05;10.18;;;7.00;;
33453;SDS011;39400;49.744;7.012;2023-05-15T11:31:12;8.52;;;6.72;;
33453;SDS011;39400;49.744;7.012;2023-05-15T11:33:23;9.75;;;6.90;;
33453;SDS011;39400;49.744;7.012;2023-05-15T11:35:56;11.52;;;7.05;;
33453;SDS011;39400;49.744;7.012;2023-05-15T11:38:24;10.70;;;7.53;;
33453;SDS011;39400;49.744;7.012;2023-05-15T11:40:59;13.25;;;6.55;;
33453;SDS011;39400;49.744;7.012;2023-05-15T11:43:28;9.57;;;7.65;;
33453;SDS011;39400;49.744;7.012;2023-05-15T11:48:31;10.43;;;7.10;;
33453;SDS011;39400;49.744;7.012;2023-05-15T11:51:01;9.25;;;6.93;;
33453;SDS011;39400;49.744;7.012;2023-05-15T11:53:27;7.13;;;5.85;;
33453;SDS011;39400;49.744;7.012;2023-05-15T11:55:54;7.80;;;5.30;;
33453;SDS011;39400;49.744;7.012;2023-05-15T11:58:20;16.60;;;6.57;;
33453;SDS011;39400;49.744;7.012;2023-05-15T12:00:47;7.50;;;5.57;;
33453;SDS011;39400;49.744;7.012;2023-05-15T12:03:14;8.25;;;5.68;;
33453;SDS011;39400;49.744;7.012;2023-05-15T12:05:40;9.20;;;6.45;;
33453;SDS011;39400;49.744;7.012;2023-05-15T12:08:12;8.48;;;6.07;;
33453;SDS011;39400;49.744;7.012;2023-05-15T12:10:44;9.13;;;5.70;;
33453;SDS011;39400;49.744;7.012;2023-05-15T12:13:13;7.97;;;5.80;;
33453;SDS011;39400;49.744;7.012;2023-05-15T12:15:41;10.40;;;5.40;;
33453;SDS011;39400;49.744;7.012;2023-05-15T12:18:08;6.25;;;4.95;;
33453;SDS011;39400;49.744;7.012;2023-05-15T12:20:34;5.43;;;4.63;;
33453;SDS011;39400;49.744;7.012;2023-05-15T12:23:04;6.93;;;4.97;;
33453;SDS011;39400;49.744;7.012;2023-05-15T12:25:34;7.57;;;5.70;;
33453;SDS011;39400;49.744;7.012;2023-05-15T12:28:01;8.80;;;5.80;;
33453;SDS011;39400;49.744;7.012;2023-05-15T12:30:29;7.45;;;5.13;;
33453;SDS011;39400;49.744;7.012;2023-05-15T12:33:02;7.72;;;4.63;;
33453;SDS011;39400;49.744;7.012;2023-05-15T12:35:31;6.13;;;4.60;;
33453;SDS011;39400;49.744;7.012;2023-05-15T12:37:58;8.65;;;5.57;;
33453;SDS011;39400;49.744;7.012;2023-05-15T12:40:23;7.28;;;4.97;;
33453;SDS011;39400;49.744;7.012;2023-05-15T12:42:52;5.97;;;4.70;;
33453;SDS011;39400;49.744;7.012;2023-05-15T12:45:18;6.25;;;4.75;;
33453;SDS011;39400;49.744;7.012;2023-05-15T12:47:45;6.35;;;4.50;;
33453;SDS011;39400;49.744;7.012;2023-05-15T12:52:45;5.85;;;4.40;;
33453;SDS011;39400;49.744;7.012;2023-05-15T12:55:22;5.63;;;4.47;;
33453;SDS011;39400;49.744;7.012;2023-05-15T12:57:47;5.80;;;4.47;;
33453;SDS011;39400;49.744;7.012;2023-05-15T13:00:13;9.63;;;5.10;;
33453;SDS011;39400;49.744;7.012;2023-05-15T13:02:41;9.20;;;4.93;;
33453;SDS011;39400;49.744;7.012;2023-05-15T13:05:08;6.78;;;4.50;;
33453;SDS011;39400;49.744;7.012;2023-05-15T13:07:33;10.82;;;5.97;;
33453;SDS011;39400;49.744;7.012;2023-05-15T13:10:03;6.75;;;5.00;;
33453;SDS011;39400;49.744;7.012;2023-05-15T13:12:43;7.30;;;5.30;;
33453;SDS011;39400;49.744;7.012;2023-05-15T13:15:54;7.45;;;5.38;;
33453;SDS011;39400;49.744;7.012;2023-05-15T13:20:27;7.68;;;5.70;;
33453;SDS011;39400;49.744;7.012;2023-05-15T13:22:56;7.55;;;5.55;;
33453;SDS011;39400;49.744;7.012;2023-05-15T13:25:21;6.20;;;4.95;;
33453;SDS011;39400;49.744;7.012;2023-05-15T13:27:47;9.40;;;5.25;;
33453;SDS011;39400;49.744;7.012;2023-05-15T13:30:13;6.97;;;4.97;;
33453;SDS011;39400;49.744;7.012;2023-05-15T13:32:39;10.40;;;4.20;;
33453;SDS011;39400;49.744;7.012;2023-05-15T13:35:04;4.63;;;3.60;;
33453;SDS011;39400;49.744;7.012;2023-05-15T13:37:30;6.30;;;4.35;;
33453;SDS011;39400;49.744;7.012;2023-05-15T13:39:56;5.43;;;4.20;;
33453;SDS011;39400;49.744;7.012;2023-05-15T13:42:21;9.82;;;4.25;;
33453;SDS011;39400;49.744;7.012;2023-05-15T13:44:46;4.95;;;3.70;;
33453;SDS011;39400;49.744;7.012;2023-05-15T13:47:12;5.47;;;3.33;;
33453;SDS011;39400;49.744;7.012;2023-05-15T13:49:37;6.78;;;4.10;;
33453;SDS011;39400;49.744;7.012;2023-05-15T13:52:02;6.15;;;3.80;;
33453;SDS011;39400;49.744;7.012;2023-05-15T13:54:28;7.88;;;3.60;;
33453;SDS011;39400;49.744;7.012;2023-05-15T13:56:54;8.48;;;4.00;;
33453;SDS011;39400;49.744;7.012;2023-05-15T13:59:19;6.28;;;3.80;;
33453;SDS011;39400;49.744;7.012;2023-05-15T14:01:44;6.78;;;3.70;;
33453;SDS011;39400;49.744;7.012;2023-05-15T14:04:10;8.85;;;4.13;;
33453;SDS011;39400;49.744;7.012;2023-05-15T14:06:35;5.60;;;4.32;;
33453;SDS011;39400;49.744;7.012;2023-05-15T14:09:01;5.47;;;4.03;;
33453;SDS011;39400;49.744;7.012;2023-05-15T14:11:26;9.73;;;4.65;;
33453;SDS011;39400;49.744;7.012;2023-05-15T14:13:51;6.13;;;4.50;;
33453;SDS011;39400;49.744;7.012;2023-05-15T14:16:17;11.63;;;5.57;;
33453;SDS011;39400;49.744;7.012;2023-05-15T14:18:42;7.93;;;4.05;;
33453;SDS011;39400;49.744;7.012;2023-05-15T14:21:07;5.15;;;3.72;;
33453;SDS011;39400;49.744;7.012;2023-05-15T14:23:33;9.48;;;4.70;;
33453;SDS011;39400;49.744;7.012;2023-05-15T14:25:58;7.90;;;5.32;;
33453;SDS011;39400;49.744;7.012;2023-05-15T14:28:24;8.05;;;5.22;;
33453;SDS011;39400;49.744;7.012;2023-05-15T14:30:49;7.97;;;5.32;;
33453;SDS011;39400;49.744;7.012;2023-05-15T14:33:14;8.35;;;5.70;;
33453;SDS011;39400;49.744;7.012;2023-05-15T14:35:40;8.70;;;5.85;;
33453;SDS011;39400;49.744;7.012;2023-05-15T14:38:05;8.25;;;6.95;;
33453;SDS011;39400;49.744;7.012;2023-05-15T14:40:30;10.65;;;7.72;;
33453;SDS011;39400;49.744;7.012;2023-05-15T14:42:56;9.23;;;7.88;;
33453;SDS011;39400;49.744;7.012;2023-05-15T14:45:21;10.02;;;8.80;;
33453;SDS011;39400;49.744;7.012;2023-05-15T14:47:47;12.27;;;8.45;;
33453;SDS011;39400;49.744;7.012;2023-05-15T14:50:12;10.25;;;7.65;;
33453;SDS011;39400;49.744;7.012;2023-05-15T14:52:38;9.68;;;8.40;;
33453;SDS011;39400;49.744;7.012;2023-05-15T14:55:03;10.80;;;7.70;;
33453;SDS011;39400;49.744;7.012;2023-05-15T14:57:29;10.32;;;7.68;;